sensor_id;sensor_type;location;lat;lon;timestamp;P1;durP1;ratioP1;P2;durP2;ratioP2
67597;SDS011;62026;39.230;9.122;2022-08-21T00:01:05;10.98;;;1.95;;
67597;SDS011;62026;39.230;9.122;2022-08-21T00:03:39;10.10;;;1.35;;
67597;SDS011;62026;39.230;9.122;2022-08-21T00:06:05;7.75;;;1.40;;
67597;SDS011;62026;39.230;9.122;2022-08-21T00:08:32;7.55;;;1.00;;
67597;SDS011;62026;39.230;9.122;2022-08-21T00:10:58;7.05;;;1.15;;
67597;SDS011;62026;39.230;9.122;2022-08-21T00:13:24;8.98;;;1.25;;
67597;SDS011;62026;39.230;9.122;2022-08-21T00:15:51;7.40;;;1.20;;
67597;SDS011;62026;39.230;9.122;2022-08-21T00:18:17;5.97;;;1.40;;
67597;SDS011;62026;39.230;9.122;2022-08-21T00:20:44;8.48;;;1.20;;
67597;SDS011;62026;39.230;9.122;2022-08-21T00:23:12;6.00;;;1.23;;
67597;SDS011;62026;39.230;9.122;2022-08-21T00:25:39;7.28;;;1.27;;
67597;SDS011;62026;39.230;9.122;2022-08-21T00:28:08;6.88;;;0.82;;
67597;SDS011;62026;39.230;9.122;2022-08-21T00:30:35;7.50;;;1.40;;
67597;SDS011;62026;39.230;9.122;2022-08-21T00:33:02;11.07;;;1.58;;
67597;SDS011;62026;39.230;9.122;2022-08-21T00:35:31;5.88;;;1.10;;
67597;SDS011;62026;39.230;9.122;2022-08-21T00:38:01;9.80;;;1.40;;
67597;SDS011;62026;39.230;9.122;2022-08-21T00:40:34;10.13;;;1.30;;
67597;SDS011;62026;39.230;9.122;2022-08-21T00:43:09;8.82;;;1.10;;
67597;SDS011;62026;39.230;9.122;2022-08-21T00:45:39;6.78;;;1.27;;
67597;SDS011;62026;39.230;9.122;2022-08-21T00:48:05;12.18;;;1.60;;
67597;SDS011;62026;39.230;9.122;2022-08-21T00:50:33;8.95;;;1.20;;
67597;SDS011;62026;39.230;9.122;2022-08-21T00:53:04;10.05;;;1.98;;
67597;SDS011;62026;39.230;9.122;2022-08-21T00:55:33;8.10;;;1.40;;
67597;SDS011;62026;39.230;9.122;2022-08-21T00:58:02;8.80;;;1.30;;
67597;SDS011;62026;39.230;9.122;2022-08-21T01:00:33;9.30;;;1.73;;
67597;SDS011;62026;39.230;9.122;2022-08-21T01:03:05;6.45;;;1.27;;
67597;SDS011;62026;39.230;9.122;2022-08-21T01:05:35;6.57;;;1.40;;
67597;SDS011;62026;39.230;9.122;2022-08-21T01:08:03;10.55;;;1.20;;
67597;SDS011;62026;39.230;9.122;2022-08-21T01:10:31;7.07;;;1.00;;
67597;SDS011;62026;39.230;9.122;2022-08-21T01:12:59;9.70;;;1.23;;
67597;SDS011;62026;39.230;9.122;2022-08-21T01:15:27;5.70;;;1.30;;
67597;SDS011;62026;39.230;9.122;2022-08-21T01:17:58;6.47;;;1.25;;
67597;SDS011;62026;39.230;9.122;2022-08-21T01:20:25;8.82;;;1.10;;
67597;SDS011;62026;39.230;9.122;2022-08-21T01:22:52;7.25;;;1.05;;
67597;SDS011;62026;39.230;9.122;2022-08-21T01:25:18;8.77;;;1.30;;
67597;SDS011;62026;39.230;9.122;2022-08-21T01:27:45;6.15;;;1.10;;
67597;SDS011;62026;39.230;9.122;2022-08-21T01:30:13;8.18;;;1.23;;
67597;SDS011;62026;39.230;9.122;2022-08-21T01:32:44;7.47;;;1.27;;
67597;SDS011;62026;39.230;9.122;2022-08-21T01:35:13;7.68;;;1.10;;
67597;SDS011;62026;39.230;9.122;2022-08-21T01:37:41;5.47;;;1.45;;
67597;SDS011;62026;39.230;9.122;2022-08-21T01:40:09;8.50;;;1.50;;
67597;SDS011;62026;39.230;9.122;2022-08-21T01:42:37;6.10;;;1.20;;
67597;SDS011;62026;39.230;9.122;2022-08-21T01:45:05;6.63;;;1.30;;
67597;SDS011;62026;39.230;9.122;2022-08-21T01:47:33;7.53;;;1.25;;
67597;SDS011;62026;39.230;9.122;2022-08-21T01:49:59;8.05;;;1.30;;
67597;SDS011;62026;39.230;9.122;2022-08-21T01:52:26;7.32;;;0.95;;
67597;SDS011;62026;39.230;9.122;2022-08-21T01:54:53;8.60;;;1.20;;
67597;SDS011;62026;39.230;9.122;2022-08-21T01:57:20;12.75;;;1.10;;
67597;SDS011;62026;39.230;9.122;2022-08-21T01:59:46;5.25;;;1.08;;
67597;SDS011;62026;39.230;9.122;2022-08-21T02:02:12;8.65;;;1.30;;
67597;SDS011;62026;39.230;9.122;2022-08-21T02:04:38;9.30;;;1.30;;
67597;SDS011;62026;39.230;9.122;2022-08-21T02:07:05;6.25;;;1.10;;
67597;SDS011;62026;39.230;9.122;2022-08-21T02:09:32;5.15;;;1.17;;
67597;SDS011;62026;39.230;9.122;2022-08-21T02:11:58;6.90;;;1.65;;
67597;SDS011;62026;39.230;9.122;2022-08-21T02:14:25;8.52;;;1.10;;
67597;SDS011;62026;39.230;9.122;2022-08-21T02:16:51;10.25;;;1.58;;
67597;SDS011;62026;39.230;9.122;2022-08-21T02:19:17;7.53;;;1.23;;
67597;SDS011;62026;39.230;9.122;2022-08-21T02:21:43;6.43;;;0.82;;
67597;SDS011;62026;39.230;9.122;2022-08-21T02:24:10;7.30;;;1.20;;
67597;SDS011;62026;39.230;9.122;2022-08-21T02:26:36;6.72;;;1.30;;
67597;SDS011;62026;39.230;9.122;2022-08-21T02:29:03;7.88;;;1.30;;
67597;SDS011;62026;39.230;9.122;2022-08-21T02:31:31;3.92;;;1.25;;
67597;SDS011;62026;39.230;9.122;2022-08-21T02:33:57;4.20;;;0.98;;
67597;SDS011;62026;39.230;9.122;2022-08-21T02:36:25;11.63;;;1.20;;
67597;SDS011;62026;39.230;9.122;2022-08-21T02:38:51;10.18;;;1.30;;
67597;SDS011;62026;39.230;9.122;2022-08-21T02:41:19;4.65;;;0.95;;
67597;SDS011;62026;39.230;9.122;2022-08-21T02:43:46;7.57;;;1.35;;
67597;SDS011;62026;39.230;9.122;2022-08-21T02:46:14;8.73;;;1.05;;
67597;SDS011;62026;39.230;9.122;2022-08-21T02:48:43;6.85;;;1.00;;
67597;SDS011;62026;39.230;9.122;2022-08-21T02:51:11;4.97;;;1.08;;
67597;SDS011;62026;39.230;9.122;2022-08-21T02:53:45;4.07;;;1.33;;
67597;SDS011;62026;39.230;9.122;2022-08-21T02:56:14;6.43;;;1.10;;
67597;SDS011;62026;39.230;9.122;2022-08-21T02:58:47;9.93;;;1.05;;
67597;SDS011;62026;39.230;9.122;2022-08-21T03:01:17;5.22;;;1.15;;
67597;SDS011;62026;39.230;9.122;2022-08-21T03:03:45;4.75;;;1.10;;
67597;SDS011;62026;39.230;9.122;2022-08-21T03:06:15;4.57;;;0.80;;
67597;SDS011;62026;39.230;9.122;2022-08-21T03:08:43;10.48;;;1.48;;
67597;SDS011;62026;39.230;9.122;2022-08-21T03:11:10;4.57;;;0.93;;
67597;SDS011;62026;39.230;9.122;2022-08-21T03:13:38;6.97;;;1.17;;
67597;SDS011;62026;39.230;9.122;2022-08-21T03:16:04;7.63;;;0.90;;
67597;SDS011;62026;39.230;9.122;2022-08-21T03:18:31;5.13;;;1.20;;
67597;SDS011;62026;39.230;9.122;2022-08-21T03:20:57;4.55;;;0.90;;
67597;SDS011;62026;39.230;9.122;2022-08-21T03:23:23;5.00;;;1.00;;
67597;SDS011;62026;39.230;9.122;2022-08-21T03:25:49;5.88;;;1.50;;
67597;SDS011;62026;39.230;9.122;2022-08-21T03:28:18;13.55;;;1.40;;
67597;SDS011;62026;39.230;9.122;2022-08-21T03:30:47;5.95;;;0.98;;
67597;SDS011;62026;39.230;9.122;2022-08-21T03:33:16;8.73;;;1.40;;
67597;SDS011;62026;39.230;9.122;2022-08-21T03:35:44;8.50;;;1.55;;
67597;SDS011;62026;39.230;9.122;2022-08-21T03:38:17;6.25;;;1.38;;
67597;SDS011;62026;39.230;9.122;2022-08-21T03:40:44;5.15;;;1.00;;
67597;SDS011;62026;39.230;9.122;2022-08-21T03:43:10;7.22;;;1.10;;
67597;SDS011;62026;39.230;9.122;2022-08-21T03:45:37;7.80;;;1.15;;
67597;SDS011;62026;39.230;9.122;2022-08-21T03:48:04;5.10;;;0.98;;
67597;SDS011;62026;39.230;9.122;2022-08-21T03:50:33;8.15;;;1.10;;
67597;SDS011;62026;39.230;9.122;2022-08-21T03:53:04;5.40;;;1.05;;
67597;SDS011;62026;39.230;9.122;2022-08-21T03:55:31;9.30;;;1.30;;
67597;SDS011;62026;39.230;9.122;2022-08-21T03:57:57;6.75;;;1.10;;
67597;SDS011;62026;39.230;9.122;2022-08-21T04:00:24;5.70;;;1.00;;
67597;SDS011;62026;39.230;9.122;2022-08-21T04:02:51;6.15;;;1.20;;
67597;SDS011;62026;39.230;9.122;2022-08-21T04:05:17;7.60;;;1.00;;
67597;SDS011;62026;39.230;9.122;2022-08-21T04:07:53;4.60;;;0.77;;
67597;SDS011;62026;39.230;9.122;2022-08-21T04:10:30;5.00;;;1.23;;
67597;SDS011;62026;39.230;9.122;2022-08-21T04:13:00;5.40;;;1.23;;
67597;SDS011;62026;39.230;9.122;2022-08-21T04:15:27;8.20;;;1.52;;
67597;SDS011;62026;39.230;9.122;2022-08-21T04:17:54;5.55;;;1.35;;
67597;SDS011;62026;39.230;9.122;2022-08-21T04:20:20;12.23;;;1.55;;
67597;SDS011;62026;39.230;9.122;2022-08-21T04:22:48;4.70;;;1.05;;
67597;SDS011;62026;39.230;9.122;2022-08-21T04:25:15;6.63;;;1.30;;
67597;SDS011;62026;39.230;9.122;2022-08-21T04:27:44;6.50;;;1.20;;
67597;SDS011;62026;39.230;9.122;2022-08-21T04:30:11;4.50;;;0.90;;
67597;SDS011;62026;39.230;9.122;2022-08-21T04:32:41;4.88;;;0.95;;
67597;SDS011;62026;39.230;9.122;2022-08-21T04:35:13;6.60;;;1.33;;
67597;SDS011;62026;39.230;9.122;2022-08-21T04:37:41;5.13;;;1.20;;
67597;SDS011;62026;39.230;9.122;2022-08-21T04:40:09;4.85;;;1.17;;
67597;SDS011;62026;39.230;9.122;2022-08-21T04:42:42;5.30;;;0.90;;
67597;SDS011;62026;39.230;9.122;2022-08-21T04:45:31;5.03;;;1.27;;
67597;SDS011;62026;39.230;9.122;2022-08-21T04:48:09;6.20;;;1.20;;
67597;SDS011;62026;39.230;9.122;2022-08-21T04:53:30;10.27;;;1.67;;
67597;SDS011;62026;39.230;9.122;2022-08-21T04:56:47;7.60;;;1.00;;
67597;SDS011;62026;39.230;9.122;2022-08-21T04:59:25;5.05;;;1.08;;
67597;SDS011;62026;39.230;9.122;2022-08-21T05:01:58;8.27;;;1.10;;
67597;SDS011;62026;39.230;9.122;2022-08-21T05:04:27;5.97;;;1.50;;
67597;SDS011;62026;39.230;9.122;2022-08-21T05:09:28;3.45;;;0.95;;
67597;SDS011;62026;39.230;9.122;2022-08-21T05:11:55;4.38;;;1.00;;
67597;SDS011;62026;39.230;9.122;2022-08-21T05:14:22;5.20;;;1.00;;
67597;SDS011;62026;39.230;9.122;2022-08-21T05:16:48;5.75;;;1.10;;
67597;SDS011;62026;39.230;9.122;2022-08-21T05:19:14;6.68;;;1.00;;
67597;SDS011;62026;39.230;9.122;2022-08-21T05:21:45;8.27;;;0.98;;
67597;SDS011;62026;39.230;9.122;2022-08-21T05:24:12;5.75;;;1.10;;
67597;SDS011;62026;39.230;9.122;2022-08-21T05:26:40;6.82;;;1.25;;
67597;SDS011;62026;39.230;9.122;2022-08-21T05:29:06;5.30;;;1.10;;
67597;SDS011;62026;39.230;9.122;2022-08-21T05:31:32;6.80;;;1.40;;
67597;SDS011;62026;39.230;9.122;2022-08-21T05:33:58;9.02;;;1.40;;
67597;SDS011;62026;39.230;9.122;2022-08-21T05:36:25;5.85;;;1.10;;
67597;SDS011;62026;39.230;9.122;2022-08-21T05:38:51;4.72;;;1.10;;
67597;SDS011;62026;39.230;9.122;2022-08-21T05:41:17;6.78;;;1.00;;
67597;SDS011;62026;39.230;9.122;2022-08-21T05:43:43;3.65;;;0.95;;
67597;SDS011;62026;39.230;9.122;2022-08-21T05:46:09;3.90;;;1.10;;
67597;SDS011;62026;39.230;9.122;2022-08-21T05:48:35;3.92;;;0.90;;
67597;SDS011;62026;39.230;9.122;2022-08-21T05:51:06;4.60;;;0.82;;
67597;SDS011;62026;39.230;9.122;2022-08-21T05:53:35;5.10;;;1.15;;
67597;SDS011;62026;39.230;9.122;2022-08-21T05:56:03;6.18;;;1.05;;
67597;SDS011;62026;39.230;9.122;2022-08-21T05:58:30;10.02;;;1.17;;
67597;SDS011;62026;39.230;9.122;2022-08-21T06:00:59;9.23;;;1.10;;
67597;SDS011;62026;39.230;9.122;2022-08-21T06:03:31;5.68;;;1.20;;
67597;SDS011;62026;39.230;9.122;2022-08-21T06:06:00;4.82;;;0.90;;
67597;SDS011;62026;39.230;9.122;2022-08-21T06:08:27;6.30;;;1.05;;
67597;SDS011;62026;39.230;9.122;2022-08-21T06:10:55;14.40;;;1.40;;
67597;SDS011;62026;39.230;9.122;2022-08-21T06:13:24;7.57;;;0.90;;
67597;SDS011;62026;39.230;9.122;2022-08-21T06:18:40;5.43;;;0.80;;
67597;SDS011;62026;39.230;9.122;2022-08-21T06:21:07;7.38;;;1.00;;
67597;SDS011;62026;39.230;9.122;2022-08-21T06:23:34;8.35;;;1.30;;
67597;SDS011;62026;39.230;9.122;2022-08-21T06:26:01;9.98;;;1.00;;
67597;SDS011;62026;39.230;9.122;2022-08-21T06:28:29;6.88;;;1.05;;
67597;SDS011;62026;39.230;9.122;2022-08-21T06:30:57;7.65;;;1.30;;
67597;SDS011;62026;39.230;9.122;2022-08-21T06:33:23;7.18;;;1.10;;
67597;SDS011;62026;39.230;9.122;2022-08-21T06:35:50;5.10;;;0.90;;
67597;SDS011;62026;39.230;9.122;2022-08-21T06:38:16;9.45;;;1.17;;
67597;SDS011;62026;39.230;9.122;2022-08-21T06:40:42;11.13;;;1.10;;
67597;SDS011;62026;39.230;9.122;2022-08-21T06:43:09;7.63;;;1.00;;
67597;SDS011;62026;39.230;9.122;2022-08-21T06:45:40;6.70;;;1.10;;
67597;SDS011;62026;39.230;9.122;2022-08-21T06:48:07;4.57;;;1.08;;
67597;SDS011;62026;39.230;9.122;2022-08-21T06:50:33;8.50;;;1.35;;
67597;SDS011;62026;39.230;9.122;2022-08-21T06:53:02;10.02;;;1.27;;
67597;SDS011;62026;39.230;9.122;2022-08-21T06:55:34;10.35;;;1.23;;
67597;SDS011;62026;39.230;9.122;2022-08-21T06:58:02;6.22;;;1.20;;
67597;SDS011;62026;39.230;9.122;2022-08-21T07:00:29;7.80;;;1.27;;
67597;SDS011;62026;39.230;9.122;2022-08-21T07:02:57;5.55;;;1.20;;
67597;SDS011;62026;39.230;9.122;2022-08-21T07:05:27;4.50;;;1.08;;
67597;SDS011;62026;39.230;9.122;2022-08-21T07:07:55;4.85;;;1.02;;
67597;SDS011;62026;39.230;9.122;2022-08-21T07:10:23;4.93;;;1.10;;
67597;SDS011;62026;39.230;9.122;2022-08-21T07:12:53;5.65;;;1.13;;
67597;SDS011;62026;39.230;9.122;2022-08-21T07:15:20;10.65;;;1.30;;
67597;SDS011;62026;39.230;9.122;2022-08-21T07:17:46;10.48;;;1.60;;
67597;SDS011;62026;39.230;9.122;2022-08-21T07:20:13;5.85;;;1.40;;
67597;SDS011;62026;39.230;9.122;2022-08-21T07:22:39;10.25;;;1.77;;
67597;SDS011;62026;39.230;9.122;2022-08-21T07:25:06;7.80;;;1.30;;
67597;SDS011;62026;39.230;9.122;2022-08-21T07:27:33;6.10;;;1.70;;
67597;SDS011;62026;39.230;9.122;2022-08-21T07:29:59;7.00;;;1.60;;
67597;SDS011;62026;39.230;9.122;2022-08-21T07:32:25;8.45;;;1.30;;
67597;SDS011;62026;39.230;9.122;2022-08-21T07:34:51;10.55;;;1.67;;
67597;SDS011;62026;39.230;9.122;2022-08-21T07:37:18;5.68;;;1.23;;
67597;SDS011;62026;39.230;9.122;2022-08-21T07:39:44;8.25;;;1.40;;
67597;SDS011;62026;39.230;9.122;2022-08-21T07:42:13;8.10;;;2.03;;
67597;SDS011;62026;39.230;9.122;2022-08-21T07:44:41;6.07;;;2.05;;
67597;SDS011;62026;39.230;9.122;2022-08-21T07:47:07;7.13;;;1.50;;
67597;SDS011;62026;39.230;9.122;2022-08-21T07:49:33;7.50;;;1.17;;
67597;SDS011;62026;39.230;9.122;2022-08-21T07:52:00;9.50;;;2.05;;
67597;SDS011;62026;39.230;9.122;2022-08-21T07:54:26;12.50;;;1.40;;
67597;SDS011;62026;39.230;9.122;2022-08-21T07:56:52;6.40;;;1.30;;
67597;SDS011;62026;39.230;9.122;2022-08-21T07:59:19;8.82;;;1.30;;
67597;SDS011;62026;39.230;9.122;2022-08-21T08:01:45;8.07;;;1.55;;
67597;SDS011;62026;39.230;9.122;2022-08-21T08:04:11;7.53;;;1.52;;
67597;SDS011;62026;39.230;9.122;2022-08-21T08:06:37;7.43;;;1.23;;
67597;SDS011;62026;39.230;9.122;2022-08-21T08:09:03;15.40;;;1.40;;
67597;SDS011;62026;39.230;9.122;2022-08-21T08:11:30;8.73;;;1.40;;
67597;SDS011;62026;39.230;9.122;2022-08-21T08:13:56;12.00;;;1.42;;
67597;SDS011;62026;39.230;9.122;2022-08-21T08:16:24;5.07;;;1.70;;
67597;SDS011;62026;39.230;9.122;2022-08-21T08:18:51;11.13;;;1.73;;
67597;SDS011;62026;39.230;9.122;2022-08-21T08:21:19;9.18;;;1.50;;
67597;SDS011;62026;39.230;9.122;2022-08-21T08:23:46;6.70;;;1.05;;
67597;SDS011;62026;39.230;9.122;2022-08-21T08:26:13;4.43;;;1.30;;
67597;SDS011;62026;39.230;9.122;2022-08-21T08:28:40;8.68;;;1.55;;
67597;SDS011;62026;39.230;9.122;2022-08-21T08:31:07;4.93;;;1.08;;
67597;SDS011;62026;39.230;9.122;2022-08-21T08:33:33;6.25;;;1.60;;
67597;SDS011;62026;39.230;9.122;2022-08-21T08:35:59;7.38;;;1.58;;
67597;SDS011;62026;39.230;9.122;2022-08-21T08:38:25;5.15;;;1.08;;
67597;SDS011;62026;39.230;9.122;2022-08-21T08:43:37;5.28;;;1.35;;
67597;SDS011;62026;39.230;9.122;2022-08-21T08:46:04;4.80;;;1.30;;
67597;SDS011;62026;39.230;9.122;2022-08-21T08:51:27;6.20;;;1.30;;
67597;SDS011;62026;39.230;9.122;2022-08-21T08:54:02;9.38;;;1.20;;
67597;SDS011;62026;39.230;9.122;2022-08-21T08:56:34;7.38;;;0.98;;
67597;SDS011;62026;39.230;9.122;2022-08-21T08:59:05;5.68;;;1.25;;
67597;SDS011;62026;39.230;9.122;2022-08-21T09:01:46;5.47;;;1.00;;
67597;SDS011;62026;39.230;9.122;2022-08-21T09:04:13;4.38;;;1.30;;
67597;SDS011;62026;39.230;9.122;2022-08-21T09:09:55;8.32;;;1.20;;
67597;SDS011;62026;39.230;9.122;2022-08-21T09:18:41;6.43;;;1.08;;
67597;SDS011;62026;39.230;9.122;2022-08-21T09:21:20;3.17;;;0.77;;
67597;SDS011;62026;39.230;9.122;2022-08-21T09:24:22;5.10;;;0.90;;
67597;SDS011;62026;39.230;9.122;2022-08-21T09:27:43;8.95;;;1.00;;
67597;SDS011;62026;39.230;9.122;2022-08-21T09:30:10;3.38;;;0.80;;
67597;SDS011;62026;39.230;9.122;2022-08-21T09:32:38;10.75;;;1.10;;
67597;SDS011;62026;39.230;9.122;2022-08-21T09:37:55;4.95;;;0.80;;
67597;SDS011;62026;39.230;9.122;2022-08-21T09:40:36;8.80;;;1.35;;
67597;SDS011;62026;39.230;9.122;2022-08-21T09:45:38;8.02;;;1.58;;
67597;SDS011;62026;39.230;9.122;2022-08-21T09:48:08;1.60;;;0.80;;
67597;SDS011;62026;39.230;9.122;2022-08-21T09:50:36;2.65;;;0.70;;
67597;SDS011;62026;39.230;9.122;2022-08-21T09:53:02;4.32;;;0.68;;
67597;SDS011;62026;39.230;9.122;2022-08-21T09:55:33;3.58;;;0.60;;
67597;SDS011;62026;39.230;9.122;2022-08-21T09:58:33;3.85;;;0.60;;
67597;SDS011;62026;39.230;9.122;2022-08-21T10:01:04;3.17;;;0.85;;
67597;SDS011;62026;39.230;9.122;2022-08-21T10:03:32;3.45;;;1.00;;
67597;SDS011;62026;39.230;9.122;2022-08-21T10:06:00;5.22;;;1.20;;
67597;SDS011;62026;39.230;9.122;2022-08-21T10:08:34;3.50;;;0.88;;
67597;SDS011;62026;39.230;9.122;2022-08-21T10:11:10;5.22;;;0.93;;
67597;SDS011;62026;39.230;9.122;2022-08-21T10:13:49;6.78;;;0.80;;
67597;SDS011;62026;39.230;9.122;2022-08-21T10:16:29;3.50;;;0.80;;
67597;SDS011;62026;39.230;9.122;2022-08-21T10:25:54;5.45;;;0.80;;
67597;SDS011;62026;39.230;9.122;2022-08-21T10:32:05;3.70;;;0.70;;
67597;SDS011;62026;39.230;9.122;2022-08-21T10:35:08;3.60;;;0.60;;
67597;SDS011;62026;39.230;9.122;2022-08-21T10:55:32;3.33;;;0.70;;
67597;SDS011;62026;39.230;9.122;2022-08-21T10:58:10;1.63;;;0.70;;
67597;SDS011;62026;39.230;9.122;2022-08-21T11:00:47;4.45;;;1.00;;
67597;SDS011;62026;39.230;9.122;2022-08-21T11:03:26;4.80;;;1.00;;
67597;SDS011;62026;39.230;9.122;2022-08-21T11:09:03;6.20;;;0.90;;
67597;SDS011;62026;39.230;9.122;2022-08-21T11:11:46;2.95;;;0.80;;
67597;SDS011;62026;39.230;9.122;2022-08-21T11:14:26;9.50;;;1.10;;
67597;SDS011;62026;39.230;9.122;2022-08-21T11:17:15;3.45;;;0.77;;
67597;SDS011;62026;39.230;9.122;2022-08-21T11:20:03;3.00;;;0.73;;
67597;SDS011;62026;39.230;9.122;2022-08-21T11:22:44;4.70;;;0.90;;
67597;SDS011;62026;39.230;9.122;2022-08-21T11:25:27;3.55;;;0.95;;
67597;SDS011;62026;39.230;9.122;2022-08-21T11:28:08;4.10;;;0.95;;
67597;SDS011;62026;39.230;9.122;2022-08-21T11:30:52;6.97;;;1.15;;
67597;SDS011;62026;39.230;9.122;2022-08-21T11:45:50;3.17;;;0.60;;
67597;SDS011;62026;39.230;9.122;2022-08-21T11:48:27;4.78;;;0.80;;
67597;SDS011;62026;39.230;9.122;2022-08-21T11:52:08;7.05;;;0.80;;
67597;SDS011;62026;39.230;9.122;2022-08-21T11:55:22;11.88;;;3.85;;
67597;SDS011;62026;39.230;9.122;2022-08-21T12:00:34;2.10;;;0.80;;
67597;SDS011;62026;39.230;9.122;2022-08-21T12:03:24;1.98;;;0.65;;
67597;SDS011;62026;39.230;9.122;2022-08-21T12:06:06;3.72;;;1.17;;
67597;SDS011;62026;39.230;9.122;2022-08-21T12:08:45;2.85;;;0.73;;
67597;SDS011;62026;39.230;9.122;2022-08-21T12:11:24;2.08;;;0.68;;
67597;SDS011;62026;39.230;9.122;2022-08-21T12:13:57;3.15;;;0.90;;
67597;SDS011;62026;39.230;9.122;2022-08-21T12:19:09;3.10;;;0.63;;
67597;SDS011;62026;39.230;9.122;2022-08-21T12:29:48;2.42;;;0.55;;
67597;SDS011;62026;39.230;9.122;2022-08-21T12:32:28;4.97;;;0.80;;
67597;SDS011;62026;39.230;9.122;2022-08-21T12:35:11;2.70;;;0.70;;
67597;SDS011;62026;39.230;9.122;2022-08-21T12:37:50;2.95;;;0.52;;
67597;SDS011;62026;39.230;9.122;2022-08-21T12:41:26;6.13;;;1.13;;
67597;SDS011;62026;39.230;9.122;2022-08-21T12:43:42;4.13;;;0.90;;
67597;SDS011;62026;39.230;9.122;2022-08-21T12:46:36;2.28;;;0.60;;
67597;SDS011;62026;39.230;9.122;2022-08-21T12:49:23;8.25;;;0.80;;
67597;SDS011;62026;39.230;9.122;2022-08-21T12:51:57;4.03;;;0.50;;
67597;SDS011;62026;39.230;9.122;2022-08-21T12:54:38;4.88;;;1.45;;
67597;SDS011;62026;39.230;9.122;2022-08-21T12:57:17;1.67;;;0.50;;
67597;SDS011;62026;39.230;9.122;2022-08-21T13:00:01;2.47;;;0.50;;
67597;SDS011;62026;39.230;9.122;2022-08-21T13:02:38;3.03;;;0.52;;
67597;SDS011;62026;39.230;9.122;2022-08-21T13:05:16;6.15;;;0.60;;
67597;SDS011;62026;39.230;9.122;2022-08-21T13:07:59;6.15;;;0.80;;
67597;SDS011;62026;39.230;9.122;2022-08-21T13:10:32;2.17;;;0.45;;
67597;SDS011;62026;39.230;9.122;2022-08-21T13:13:05;4.20;;;0.60;;
67597;SDS011;62026;39.230;9.122;2022-08-21T13:15:39;2.45;;;0.60;;
67597;SDS011;62026;39.230;9.122;2022-08-21T13:18:07;2.60;;;0.55;;
67597;SDS011;62026;39.230;9.122;2022-08-21T13:20:34;3.67;;;0.50;;
67597;SDS011;62026;39.230;9.122;2022-08-21T13:23:20;1.50;;;0.68;;
67597;SDS011;62026;39.230;9.122;2022-08-21T13:25:51;4.13;;;0.60;;
67597;SDS011;62026;39.230;9.122;2022-08-21T13:28:19;2.45;;;0.60;;
67597;SDS011;62026;39.230;9.122;2022-08-21T13:30:47;4.68;;;0.75;;
67597;SDS011;62026;39.230;9.122;2022-08-21T13:33:24;2.15;;;0.60;;
67597;SDS011;62026;39.230;9.122;2022-08-21T13:36:05;2.88;;;0.75;;
67597;SDS011;62026;39.230;9.122;2022-08-21T13:38:39;4.50;;;0.70;;
67597;SDS011;62026;39.230;9.122;2022-08-21T13:43:44;8.02;;;0.80;;
67597;SDS011;62026;39.230;9.122;2022-08-21T13:46:15;2.95;;;0.50;;
67597;SDS011;62026;39.230;9.122;2022-08-21T13:48:47;1.30;;;0.60;;
67597;SDS011;62026;39.230;9.122;2022-08-21T13:51:13;1.60;;;0.60;;
67597;SDS011;62026;39.230;9.122;2022-08-21T13:56:28;3.00;;;0.50;;
67597;SDS011;62026;39.230;9.122;2022-08-21T13:59:10;1.48;;;0.50;;
67597;SDS011;62026;39.230;9.122;2022-08-21T14:01:38;2.95;;;0.60;;
67597;SDS011;62026;39.230;9.122;2022-08-21T14:06:50;1.52;;;0.55;;
67597;SDS011;62026;39.230;9.122;2022-08-21T14:09:40;4.07;;;0.70;;
67597;SDS011;62026;39.230;9.122;2022-08-21T14:12:16;2.10;;;0.68;;
67597;SDS011;62026;39.230;9.122;2022-08-21T14:15:04;1.63;;;0.60;;
67597;SDS011;62026;39.230;9.122;2022-08-21T14:17:34;4.22;;;0.50;;
67597;SDS011;62026;39.230;9.122;2022-08-21T14:20:03;1.20;;;0.50;;
67597;SDS011;62026;39.230;9.122;2022-08-21T14:22:39;3.90;;;0.40;;
67597;SDS011;62026;39.230;9.122;2022-08-21T14:25:42;1.48;;;0.40;;
67597;SDS011;62026;39.230;9.122;2022-08-21T14:30:50;1.05;;;0.40;;
67597;SDS011;62026;39.230;9.122;2022-08-21T14:33:25;1.35;;;0.28;;
67597;SDS011;62026;39.230;9.122;2022-08-21T14:35:57;3.60;;;0.47;;
67597;SDS011;62026;39.230;9.122;2022-08-21T14:38:25;1.13;;;0.30;;
67597;SDS011;62026;39.230;9.122;2022-08-21T14:40:54;3.47;;;0.40;;
67597;SDS011;62026;39.230;9.122;2022-08-21T14:43:28;2.75;;;0.47;;
67597;SDS011;62026;39.230;9.122;2022-08-21T14:45:56;1.63;;;0.50;;
67597;SDS011;62026;39.230;9.122;2022-08-21T14:48:22;2.05;;;0.30;;
67597;SDS011;62026;39.230;9.122;2022-08-21T14:50:49;2.03;;;0.50;;
67597;SDS011;62026;39.230;9.122;2022-08-21T14:53:16;3.78;;;0.70;;
67597;SDS011;62026;39.230;9.122;2022-08-21T14:55:42;2.13;;;0.65;;
67597;SDS011;62026;39.230;9.122;2022-08-21T14:58:27;3.17;;;0.40;;
67597;SDS011;62026;39.230;9.122;2022-08-21T15:00:53;1.40;;;0.50;;
67597;SDS011;62026;39.230;9.122;2022-08-21T15:03:21;1.75;;;0.40;;
67597;SDS011;62026;39.230;9.122;2022-08-21T15:05:47;3.03;;;0.50;;
67597;SDS011;62026;39.230;9.122;2022-08-21T15:08:15;1.05;;;0.40;;
67597;SDS011;62026;39.230;9.122;2022-08-21T15:10:42;4.03;;;0.57;;
67597;SDS011;62026;39.230;9.122;2022-08-21T15:13:09;2.85;;;0.50;;
67597;SDS011;62026;39.230;9.122;2022-08-21T15:15:40;6.88;;;0.50;;
67597;SDS011;62026;39.230;9.122;2022-08-21T15:18:10;0.73;;;0.40;;
67597;SDS011;62026;39.230;9.122;2022-08-21T15:20:36;1.73;;;0.30;;
67597;SDS011;62026;39.230;9.122;2022-08-21T15:23:04;3.22;;;0.40;;
67597;SDS011;62026;39.230;9.122;2022-08-21T15:25:33;1.50;;;0.43;;
67597;SDS011;62026;39.230;9.122;2022-08-21T15:28:00;1.25;;;0.40;;
67597;SDS011;62026;39.230;9.122;2022-08-21T15:30:29;0.93;;;0.40;;
67597;SDS011;62026;39.230;9.122;2022-08-21T15:32:57;2.30;;;0.50;;
67597;SDS011;62026;39.230;9.122;2022-08-21T15:35:23;0.70;;;0.40;;
67597;SDS011;62026;39.230;9.122;2022-08-21T15:37:49;5.13;;;0.50;;
67597;SDS011;62026;39.230;9.122;2022-08-21T15:40:15;0.88;;;0.30;;
67597;SDS011;62026;39.230;9.122;2022-08-21T15:42:42;2.70;;;0.55;;
67597;SDS011;62026;39.230;9.122;2022-08-21T15:45:10;3.60;;;0.40;;
67597;SDS011;62026;39.230;9.122;2022-08-21T15:47:38;1.00;;;0.30;;
67597;SDS011;62026;39.230;9.122;2022-08-21T15:50:11;0.80;;;0.30;;
67597;SDS011;62026;39.230;9.122;2022-08-21T15:52:38;1.85;;;0.40;;
67597;SDS011;62026;39.230;9.122;2022-08-21T15:55:05;2.97;;;0.38;;
67597;SDS011;62026;39.230;9.122;2022-08-21T15:57:32;2.10;;;0.40;;
67597;SDS011;62026;39.230;9.122;2022-08-21T16:00:06;1.50;;;0.35;;
67597;SDS011;62026;39.230;9.122;2022-08-21T16:02:50;3.20;;;0.47;;
67597;SDS011;62026;39.230;9.122;2022-08-21T16:05:22;4.07;;;0.40;;
67597;SDS011;62026;39.230;9.122;2022-08-21T16:07:49;1.73;;;0.50;;
67597;SDS011;62026;39.230;9.122;2022-08-21T16:10:17;0.52;;;0.30;;
67597;SDS011;62026;39.230;9.122;2022-08-21T16:12:49;1.80;;;0.50;;
67597;SDS011;62026;39.230;9.122;2022-08-21T16:15:21;1.30;;;0.40;;
67597;SDS011;62026;39.230;9.122;2022-08-21T16:17:48;2.28;;;0.40;;
67597;SDS011;62026;39.230;9.122;2022-08-21T16:20:23;1.27;;;0.43;;
67597;SDS011;62026;39.230;9.122;2022-08-21T16:22:53;1.35;;;0.40;;
67597;SDS011;62026;39.230;9.122;2022-08-21T16:25:22;7.75;;;0.47;;
67597;SDS011;62026;39.230;9.122;2022-08-21T16:27:50;1.65;;;0.50;;
67597;SDS011;62026;39.230;9.122;2022-08-21T16:30:22;3.55;;;0.50;;
67597;SDS011;62026;39.230;9.122;2022-08-21T16:32:49;0.82;;;0.40;;
67597;SDS011;62026;39.230;9.122;2022-08-21T16:35:16;2.80;;;0.40;;
67597;SDS011;62026;39.230;9.122;2022-08-21T16:37:46;1.40;;;0.38;;
67597;SDS011;62026;39.230;9.122;2022-08-21T16:40:13;1.17;;;0.40;;
67597;SDS011;62026;39.230;9.122;2022-08-21T16:42:40;1.98;;;0.60;;
67597;SDS011;62026;39.230;9.122;2022-08-21T16:45:08;3.20;;;0.70;;